Time;durP1;ratioP1;P1;durP2;ratioP2;P2;SDS_P1;SDS_P2;PMS_P1;PMS_P2;Temp;Humidity;BMP_temperature;BMP_pressure;BME280_temperature;BME280_humidity;BME280_pressure;Samples;Min_cycle;Max_cycle;Signal;HPM_P1;HPM_P2
2022/04/24 00:01:34;;;;;;;;;15.00;13.33;;;;;-147.59;100.00;57188.72;4977822;28;45927;-76
2022/04/24 00:04:00;;;;;;;;;15.67;13.00;;;;;-147.59;100.00;57188.72;4969409;28;45501;-76
2022/04/24 00:06:26;;;;;;;;;12.00;12.00;;;;;-147.59;100.00;57188.72;4997650;28;45566;-76
2022/04/24 00:08:51;;;;;;;;;12.33;11.33;;;;;-147.59;100.00;57188.72;4997404;28;45334;-76
2022/04/24 00:11:17;;;;;;;;;13.33;13.33;;;;;-147.59;100.00;57188.72;4980020;28;45369;-76
2022/04/24 00:13:43;;;;;;;;;14.67;14.67;;;;;-147.59;100.00;57188.72;4997421;28;45667;-76
2022/04/24 00:16:09;;;;;;;;;13.67;13.67;;;;;-147.59;100.00;57188.72;4997414;28;46216;-76
2022/04/24 00:18:38;;;;;;;;;15.33;14.00;;;;;-147.59;100.00;57188.72;4979596;28;45518;-76
2022/04/24 00:21:04;;;;;;;;;17.00;17.00;;;;;-147.59;100.00;57188.72;4980019;28;45507;-76
2022/04/24 00:23:30;;;;;;;;;14.00;14.00;;;;;-147.59;100.00;57188.72;4997180;28;45315;-76
2022/04/24 00:25:56;;;;;;;;;16.00;16.00;;;;;-147.59;100.00;57188.72;4996930;28;46451;-76
2022/04/24 00:28:21;;;;;;;;;16.67;15.33;;;;;-147.59;100.00;57188.72;5008323;28;45274;-76
2022/04/24 00:30:47;;;;;;;;;15.00;14.33;;;;;-147.59;100.00;57188.72;5017376;28;45261;-76
2022/04/24 00:33:12;;;;;;;;;15.67;15.67;;;;;-147.59;100.00;57188.72;5015933;28;45469;-76
2022/04/24 00:35:37;;;;;;;;;20.00;17.00;;;;;-147.59;100.00;57188.72;5015495;28;46941;-76
2022/04/24 00:38:02;;;;;;;;;15.67;14.67;;;;;-147.59;100.00;57188.72;5016826;28;45658;-76
2022/04/24 00:40:28;;;;;;;;;19.00;17.67;;;;;-147.59;100.00;57188.72;5017102;28;45815;-76
2022/04/24 00:42:53;;;;;;;;;17.67;15.33;;;;;-147.59;100.00;57188.72;5015267;28;45782;-76
2022/04/24 00:45:19;;;;;;;;;15.33;14.67;;;;;-147.59;100.00;57188.72;5016704;28;45349;-76
2022/04/24 00:47:45;;;;;;;;;13.33;13.33;;;;;-147.59;100.00;57188.72;5016758;28;45242;-76
2022/04/24 00:50:11;;;;;;;;;17.33;17.00;;;;;-147.59;100.00;57188.72;5016820;28;45424;-76
2022/04/24 00:52:38;;;;;;;;;15.00;15.00;;;;;-147.59;100.00;57188.72;5016521;28;45486;-75
2022/04/24 00:55:04;;;;;;;;;17.67;16.33;;;;;-147.59;100.00;57188.72;5015267;28;48238;-76
2022/04/24 00:57:30;;;;;;;;;17.00;15.33;;;;;-147.59;100.00;57188.72;5016212;28;45383;-76
2022/04/24 00:59:55;;;;;;;;;15.00;14.00;;;;;-147.59;100.00;57188.72;5016555;28;45485;-76
2022/04/24 01:02:21;;;;;;;;;19.33;18.00;;;;;-147.59;100.00;57188.72;5016501;28;45587;-76
2022/04/24 01:04:47;;;;;;;;;17.67;15.00;;;;;-147.59;100.00;57188.72;5016206;28;45838;-76
2022/04/24 01:07:12;;;;;;;;;19.00;17.00;;;;;-147.59;100.00;57188.72;5016474;28;45336;-75
2022/04/24 01:09:37;;;;;;;;;17.00;17.00;;;;;-147.59;100.00;57188.72;5016411;28;45217;-75
2022/04/24 01:12:05;;;;;;;;;16.67;16.67;;;;;-147.59;100.00;57188.72;5016149;28;45455;-75
2022/04/24 01:14:30;;;;;;;;;17.00;17.00;;;;;-147.59;100.00;57188.72;5016164;28;46567;-75
2022/04/24 01:16:58;;;;;;;;;15.33;15.33;;;;;-147.59;100.00;57188.72;5016213;28;45388;-76
2022/04/24 01:19:25;;;;;;;;;17.00;17.00;;;;;-147.59;100.00;57188.72;5016574;28;45428;-76
2022/04/24 01:21:51;;;;;;;;;19.67;16.33;;;;;-147.59;100.00;57188.72;5016213;28;45463;-75
2022/04/24 01:24:19;;;;;;;;;18.67;17.67;;;;;-147.59;100.00;57188.72;5016059;28;45405;-76
2022/04/24 01:26:45;;;;;;;;;19.00;17.00;;;;;-147.59;100.00;57188.72;5013970;28;45479;-76
2022/04/24 01:29:11;;;;;;;;;16.67;15.67;;;;;-147.59;100.00;57188.72;5016170;28;45348;-76
2022/04/24 01:31:37;;;;;;;;;18.67;18.67;;;;;-147.59;100.00;57188.72;5015761;28;45440;-75
2022/04/24 01:34:03;;;;;;;;;17.00;16.67;;;;;-147.59;100.00;57188.72;5015934;28;45573;-76
2022/04/24 01:36:28;;;;;;;;;17.67;16.67;;;;;-147.59;100.00;57188.72;5015918;28;45507;-75
2022/04/24 01:38:54;;;;;;;;;19.00;18.67;;;;;-147.59;100.00;57188.72;5015250;28;45443;-75
2022/04/24 01:41:19;;;;;;;;;14.67;12.00;;;;;-147.59;100.00;57188.72;5014367;28;45639;-75
2022/04/24 01:43:46;;;;;;;;;18.33;16.33;;;;;-147.59;100.00;57188.72;5015852;28;45475;-75
2022/04/24 01:46:13;;;;;;;;;11.00;9.00;;;;;-147.59;100.00;57188.72;5014645;28;45657;-75
2022/04/24 01:48:38;;;;;;;;;15.00;15.00;;;;;-147.59;100.00;57188.72;5015647;28;45377;-75
2022/04/24 01:51:06;;;;;;;;;17.00;16.00;;;;;-147.59;100.00;57188.72;5015918;28;45238;-75
2022/04/24 01:53:32;;;;;;;;;18.33;17.33;;;;;-147.59;100.00;57188.72;5015455;28;45519;-75
2022/04/24 01:55:58;;;;;;;;;17.33;15.67;;;;;-147.59;100.00;57188.72;5013724;28;45433;-76
2022/04/24 01:58:24;;;;;;;;;17.33;16.33;;;;;-147.59;100.00;57188.72;5015782;28;45480;-75
2022/04/24 02:00:50;;;;;;;;;16.67;15.67;;;;;-147.59;100.00;57188.72;5015546;28;45395;-75
2022/04/24 02:03:16;;;;;;;;;15.67;14.00;;;;;-147.59;100.00;57188.72;5015472;28;45815;-76
2022/04/24 02:05:41;;;;;;;;;17.00;16.00;;;;;-147.59;100.00;57188.72;5014055;28;45644;-75
2022/04/24 02:08:06;;;;;;;;;17.00;17.00;;;;;-147.59;100.00;57188.72;5014382;28;45309;-75
2022/04/24 02:10:32;;;;;;;;;19.00;17.00;;;;;-147.59;100.00;57188.72;5013965;28;45463;-75
2022/04/24 02:12:57;;;;;;;;;16.00;16.00;;;;;-147.59;100.00;57188.72;5015066;28;45308;-75
2022/04/24 02:15:23;;;;;;;;;15.00;15.00;;;;;-147.59;100.00;57188.72;5015260;28;45442;-75
2022/04/24 02:17:48;;;;;;;;;15.00;15.00;;;;;-147.59;100.00;57188.72;5015353;28;45527;-75
2022/04/24 02:20:14;;;;;;;;;15.00;15.00;;;;;-147.59;100.00;57188.72;5015497;28;45511;-75
2022/04/24 02:22:39;;;;;;;;;15.00;15.00;;;;;-147.59;100.00;57188.72;5015246;28;45465;-75
2022/04/24 02:25:05;;;;;;;;;15.00;15.00;;;;;-147.59;100.00;57188.72;5014937;28;45323;-75
2022/04/24 02:27:30;;;;;;;;;15.67;15.00;;;;;-147.59;100.00;57188.72;5005806;28;45498;-75
2022/04/24 02:29:56;;;;;;;;;16.67;16.33;;;;;-147.59;100.00;57188.72;4995480;28;45461;-75
2022/04/24 02:32:21;;;;;;;;;16.33;16.33;;;;;-147.59;100.00;57188.72;4995389;28;45920;-75
2022/04/24 02:34:47;;;;;;;;;21.67;18.67;;;;;-147.59;100.00;57188.72;4995233;28;45568;-75
2022/04/24 02:37:15;;;;;;;;;18.00;18.00;;;;;-147.59;100.00;57188.72;4995613;28;45475;-75
2022/04/24 02:39:40;;;;;;;;;17.67;16.00;;;;;-147.59;100.00;57188.72;4995093;28;45567;-75
2022/04/24 02:42:05;;;;;;;;;20.00;19.00;;;;;-147.59;100.00;57188.72;4995095;28;45475;-75
2022/04/24 02:44:31;;;;;;;;;17.33;17.33;;;;;-147.59;100.00;57188.72;4995230;28;45510;-75
2022/04/24 02:46:56;;;;;;;;;16.00;15.00;;;;;-147.59;100.00;57188.72;4995330;28;45432;-75
2022/04/24 02:49:21;;;;;;;;;16.00;16.00;;;;;-147.59;100.00;57188.72;4995848;28;45402;-75
2022/04/24 02:51:47;;;;;;;;;16.00;16.00;;;;;-147.59;100.00;57188.72;4997645;28;45283;-75
2022/04/24 02:54:12;;;;;;;;;20.67;20.33;;;;;-147.59;100.00;57188.72;4978742;28;45317;-75
2022/04/24 02:56:38;;;;;;;;;16.00;16.00;;;;;-147.59;100.00;57188.72;4979180;28;45339;-75
2022/04/24 02:59:04;;;;;;;;;18.33;17.00;;;;;-147.59;100.00;57188.72;4978822;28;45306;-75
2022/04/24 03:01:30;;;;;;;;;16.67;16.67;;;;;-147.59;100.00;57188.72;4977551;28;47137;-75
2022/04/24 03:03:56;;;;;;;;;19.33;18.33;;;;;-147.59;100.00;57188.72;4978713;28;45298;-75
2022/04/24 03:06:22;;;;;;;;;17.67;17.00;;;;;-147.59;100.00;57188.72;4978975;28;45386;-75
2022/04/24 03:08:47;;;;;;;;;21.00;18.33;;;;;-147.59;100.00;57188.72;4977028;28;45384;-75
2022/04/24 03:11:14;;;;;;;;;15.67;15.00;;;;;-147.59;100.00;57188.72;4978872;28;46083;-75
2022/04/24 03:13:39;;;;;;;;;22.00;22.00;;;;;-147.59;100.00;57188.72;4978681;28;45581;-75
2022/04/24 03:16:05;;;;;;;;;17.00;16.67;;;;;-147.59;100.00;57188.72;4978598;28;45410;-75
2022/04/24 03:18:30;;;;;;;;;19.00;17.33;;;;;-147.59;100.00;57188.72;4979068;28;45397;-75
2022/04/24 03:20:55;;;;;;;;;19.33;16.67;;;;;-147.59;100.00;57188.72;4977270;28;48007;-75
2022/04/24 03:23:21;;;;;;;;;18.00;16.00;;;;;-147.59;100.00;57188.72;4977005;28;45683;-75
2022/04/24 03:25:46;;;;;;;;;18.33;18.00;;;;;-147.59;100.00;57188.72;4977230;28;45415;-75
2022/04/24 03:28:11;;;;;;;;;18.33;17.00;;;;;-147.59;100.00;57188.72;5008180;28;45468;-75
2022/04/24 03:30:37;;;;;;;;;17.33;16.00;;;;;-147.59;100.00;57188.72;5007185;28;46357;-75
2022/04/24 03:33:02;;;;;;;;;19.00;17.67;;;;;-147.59;100.00;57188.72;4998229;28;45257;-76
2022/04/24 03:35:28;;;;;;;;;17.33;16.33;;;;;-147.59;100.00;57188.72;4998142;28;45358;-75
2022/04/24 03:37:53;;;;;;;;;21.00;18.00;;;;;-147.59;100.00;57188.72;4997704;28;45687;-75
2022/04/24 03:40:21;;;;;;;;;16.67;16.33;;;;;-147.59;100.00;57188.72;4980257;28;47653;-75
2022/04/24 03:42:46;;;;;;;;;17.00;17.00;;;;;-147.59;100.00;57188.72;4998068;28;45443;-75
2022/04/24 03:45:12;;;;;;;;;16.00;16.00;;;;;-147.59;100.00;57188.72;4998232;28;45658;-75
2022/04/24 03:47:38;;;;;;;;;17.00;17.00;;;;;-147.59;100.00;57188.72;4997917;28;45624;-75
2022/04/24 03:50:05;;;;;;;;;17.67;17.33;;;;;-147.59;100.00;57188.72;4997702;28;46153;-75
2022/04/24 03:52:31;;;;;;;;;18.00;18.00;;;;;-147.59;100.00;57188.72;4997455;28;45384;-75
2022/04/24 03:54:57;;;;;;;;;14.33;14.33;;;;;-147.59;100.00;57188.72;4997792;28;45422;-75
2022/04/24 03:57:22;;;;;;;;;17.67;16.67;;;;;-147.59;100.00;57188.72;4997845;28;45377;-75
2022/04/24 03:59:48;;;;;;;;;19.00;19.00;;;;;-147.59;100.00;57188.72;4997506;28;45691;-75
2022/04/24 04:02:13;;;;;;;;;18.33;17.33;;;;;-147.59;100.00;57188.72;4997404;28;45263;-75
2022/04/24 04:04:39;;;;;;;;;16.67;16.67;;;;;-147.59;100.00;57188.72;4997561;28;45573;-75
2022/04/24 04:07:05;;;;;;;;;16.67;16.67;;;;;-147.59;100.00;57188.72;4997467;28;45392;-76
2022/04/24 04:09:30;;;;;;;;;18.67;17.33;;;;;-147.59;100.00;57188.72;4997520;28;45418;-75
2022/04/24 04:11:56;;;;;;;;;16.00;16.00;;;;;-147.59;100.00;57188.72;4979495;28;45463;-76
2022/04/24 04:14:24;;;;;;;;;15.00;15.00;;;;;-147.59;100.00;57188.72;4979794;28;45457;-75
2022/04/24 04:16:50;;;;;;;;;18.00;16.67;;;;;-147.59;100.00;57188.72;4979442;28;45650;-75
2022/04/24 04:19:15;;;;;;;;;20.33;17.67;;;;;-147.59;100.00;57188.72;4997056;28;45429;-75
2022/04/24 04:21:42;;;;;;;;;18.00;18.00;;;;;-147.59;100.00;57188.72;4996915;28;45527;-76
2022/04/24 04:24:09;;;;;;;;;19.33;17.33;;;;;-147.59;100.00;57188.72;4997362;28;45357;-75
2022/04/24 04:26:35;;;;;;;;;16.00;16.00;;;;;-147.59;100.00;57188.72;4977734;28;45467;-75
2022/04/24 04:29:00;;;;;;;;;19.67;19.00;;;;;-147.59;100.00;57188.72;4977314;28;46517;-75
2022/04/24 04:31:26;;;;;;;;;18.33;18.33;;;;;-147.59;100.00;57188.72;4993141;28;45369;-75
2022/04/24 04:33:51;;;;;;;;;17.33;16.33;;;;;-147.59;100.00;57188.72;4996931;28;45405;-75
2022/04/24 04:36:17;;;;;;;;;20.33;20.33;;;;;-147.59;100.00;57188.72;4997253;28;45386;-75
2022/04/24 04:38:42;;;;;;;;;18.33;18.33;;;;;-147.59;100.00;57188.72;4979110;28;48261;-75
2022/04/24 04:41:08;;;;;;;;;19.00;19.00;;;;;-147.59;100.00;57188.72;4997079;28;45434;-75
2022/04/24 04:43:33;;;;;;;;;21.67;19.33;;;;;-147.59;100.00;57188.72;4997042;28;45475;-75
2022/04/24 04:45:58;;;;;;;;;21.33;19.67;;;;;-147.59;100.00;57188.72;4996798;28;45527;-75
2022/04/24 04:48:25;;;;;;;;;20.00;15.67;;;;;-147.59;100.00;57188.72;4996821;28;45792;-76
2022/04/24 04:50:51;;;;;;;;;18.33;17.67;;;;;-147.59;100.00;57188.72;4978867;28;45452;-75
2022/04/24 04:53:16;;;;;;;;;19.33;18.00;;;;;-147.59;100.00;57188.72;4996873;28;45467;-75
2022/04/24 04:55:42;;;;;;;;;19.67;17.00;;;;;-147.59;100.00;57188.72;4996990;28;45408;-75
2022/04/24 04:58:07;;;;;;;;;18.33;18.33;;;;;-147.59;100.00;57188.72;4978909;28;48017;-75
2022/04/24 05:00:32;;;;;;;;;21.00;18.67;;;;;-147.59;100.00;57188.72;4996820;28;45337;-75
2022/04/24 05:02:58;;;;;;;;;22.00;19.33;;;;;-147.59;100.00;57188.72;4996397;28;46082;-74
2022/04/24 05:05:23;;;;;;;;;20.33;19.33;;;;;-147.59;100.00;57188.72;4996716;28;45376;-75
2022/04/24 05:07:49;;;;;;;;;20.33;15.33;;;;;-147.59;100.00;57188.72;4977689;28;45555;-75
2022/04/24 05:10:14;;;;;;;;;18.67;18.00;;;;;-147.59;100.00;57188.72;4977037;28;45565;-75
2022/04/24 05:12:40;;;;;;;;;19.00;19.00;;;;;-147.59;100.00;57188.72;4988766;28;45418;-75
2022/04/24 05:15:07;;;;;;;;;23.00;21.33;;;;;-147.59;100.00;57188.72;4996497;28;45231;-75
2022/04/24 05:17:34;;;;;;;;;16.33;15.67;;;;;-147.59;100.00;57188.72;4995993;28;45606;-75
2022/04/24 05:20:01;;;;;;;;;18.33;18.33;;;;;-147.59;100.00;57188.72;4978286;28;45465;-75
2022/04/24 05:22:26;;;;;;;;;19.67;18.67;;;;;-147.59;100.00;57188.72;4978922;28;45598;-76
2022/04/24 05:24:52;;;;;;;;;19.33;16.67;;;;;-147.59;100.00;57188.72;4996146;28;45655;-75
2022/04/24 05:27:19;;;;;;;;;19.33;18.00;;;;;-147.59;100.00;57188.72;4995928;28;45460;-78
2022/04/24 05:29:44;;;;;;;;;17.67;16.33;;;;;-147.59;100.00;57188.72;4996332;28;45488;-75
2022/04/24 05:32:10;;;;;;;;;20.67;19.67;;;;;-147.59;100.00;57188.72;4995795;28;45394;-75
2022/04/24 05:34:36;;;;;;;;;22.33;21.67;;;;;-147.59;100.00;57188.72;4978662;28;45424;-76
2022/04/24 05:37:03;;;;;;;;;22.67;22.67;;;;;-147.59;100.00;57188.72;4995925;28;45967;-75
2022/04/24 05:39:28;;;;;;;;;19.00;19.00;;;;;-147.59;100.00;57188.72;4996145;28;45519;-75
2022/04/24 05:41:53;;;;;;;;;17.67;17.67;;;;;-147.59;100.00;57188.72;4996154;28;45435;-75
2022/04/24 05:44:19;;;;;;;;;21.67;20.33;;;;;-147.59;100.00;57188.72;4995895;28;45435;-75
2022/04/24 05:46:46;;;;;;;;;20.67;18.67;;;;;-147.59;100.00;57188.72;4995609;28;45555;-75
2022/04/24 05:49:12;;;;;;;;;18.67;18.67;;;;;-147.59;100.00;57188.72;4994875;28;45413;-77
2022/04/24 05:51:37;;;;;;;;;18.33;18.33;;;;;-147.59;100.00;57188.72;4964799;28;45910;-77
2022/04/24 05:54:03;;;;;;;;;19.33;16.67;;;;;-147.59;100.00;57188.72;4968255;28;45967;-75
2022/04/24 05:56:28;;;;;;;;;19.67;18.00;;;;;-147.59;100.00;57188.72;4985254;28;45494;-75
2022/04/24 05:58:53;;;;;;;;;18.67;18.33;;;;;-147.59;100.00;57188.72;4985207;28;45602;-76
2022/04/24 06:01:18;;;;;;;;;22.00;21.00;;;;;-147.59;100.00;57188.72;4967120;28;46144;-76
2022/04/24 06:03:44;;;;;;;;;19.67;19.67;;;;;-147.59;100.00;57188.72;4985710;28;45483;-76
2022/04/24 06:06:10;;;;;;;;;19.33;18.67;;;;;-147.59;100.00;57188.72;4985098;28;45896;-76
2022/04/24 06:08:36;;;;;;;;;18.67;18.67;;;;;-147.59;100.00;57188.72;4987084;28;45453;-76
2022/04/24 06:11:01;;;;;;;;;16.33;16.33;;;;;-147.59;100.00;57188.72;4986997;28;45530;-76
2022/04/24 06:13:27;;;;;;;;;21.00;20.33;;;;;-147.59;100.00;57188.72;4969806;28;45530;-77
2022/04/24 06:15:57;;;;;;;;;23.67;21.00;;;;;-147.59;100.00;57188.72;4985153;28;45556;-75
2022/04/24 06:18:23;;;;;;;;;18.00;18.00;;;;;-147.59;100.00;57188.72;4989287;28;46048;-76
2022/04/24 06:20:48;;;;;;;;;20.00;19.00;;;;;-147.59;100.00;57188.72;4994913;28;45646;-76
2022/04/24 06:23:13;;;;;;;;;20.00;19.00;;;;;-147.59;100.00;57188.72;4985487;28;45943;-75
2022/04/24 06:25:39;;;;;;;;;23.33;21.67;;;;;-147.59;100.00;57188.72;4987393;28;50937;-75
2022/04/24 06:28:04;;;;;;;;;22.00;21.33;;;;;-147.59;100.00;57188.72;4989474;28;45438;-78
2022/04/24 06:30:32;;;;;;;;;17.67;17.00;;;;;-147.59;100.00;57188.72;4987685;28;45449;-74
2022/04/24 06:32:58;;;;;;;;;20.33;19.67;;;;;-147.59;100.00;57188.72;4990963;28;46058;-77
2022/04/24 06:35:24;;;;;;;;;24.33;22.00;;;;;-147.59;100.00;57188.72;4987657;28;45571;-76
2022/04/24 06:37:55;;;;;;;;;23.00;20.67;;;;;-147.59;100.00;57188.72;4979012;28;45898;-75
2022/04/24 06:40:23;;;;;;;;;23.67;22.00;;;;;-147.59;100.00;57188.72;4993284;28;45455;-79
2022/04/24 06:42:51;;;;;;;;;23.67;22.33;;;;;-147.59;100.00;57188.72;4991985;28;45472;-80
2022/04/24 06:45:40;;;;;;;;;25.00;22.33;;;;;-147.59;100.00;57188.72;4999564;28;46320;-78
2022/04/24 06:48:11;;;;;;;;;27.33;24.00;;;;;-147.59;100.00;57188.72;4993715;28;45634;-78
2022/04/24 06:50:38;;;;;;;;;22.00;22.00;;;;;-147.59;100.00;57188.72;4995715;28;45483;-78
2022/04/24 06:53:06;;;;;;;;;25.33;23.00;;;;;-147.59;100.00;57188.72;4998050;28;45589;-78
2022/04/24 06:55:42;;;;;;;;;23.33;23.33;;;;;-147.59;100.00;57188.72;4991356;28;46364;-79
2022/04/24 06:58:10;;;;;;;;;23.33;23.33;;;;;-147.59;100.00;57188.72;4999043;28;46069;-76
2022/04/24 07:00:41;;;;;;;;;29.67;25.00;;;;;-147.59;100.00;57188.72;4990597;28;45527;-75
2022/04/24 07:03:10;;;;;;;;;27.67;27.00;;;;;-147.59;100.00;57188.72;4995548;28;45957;-76
2022/04/24 07:05:35;;;;;;;;;27.67;26.33;;;;;-147.59;100.00;57188.72;4981286;28;47191;-79
2022/04/24 07:08:01;;;;;;;;;28.00;26.67;;;;;-147.59;100.00;57188.72;4995113;28;45543;-77
2022/04/24 07:10:26;;;;;;;;;30.00;27.33;;;;;-147.59;100.00;57188.72;4996988;28;45434;-79
2022/04/24 07:12:53;;;;;;;;;26.00;25.33;;;;;-147.59;100.00;57188.72;4994557;28;45511;-78
2022/04/24 07:15:22;;;;;;;;;26.67;25.67;;;;;-147.59;100.00;57188.72;4994104;28;45843;-78
2022/04/24 07:17:48;;;;;;;;;27.00;25.33;;;;;-147.59;100.00;57188.72;4988115;28;45486;-78
2022/04/24 07:20:15;;;;;;;;;31.67;29.00;;;;;-147.59;100.00;57188.72;4972724;28;45938;-78
2022/04/24 07:22:47;;;;;;;;;24.33;24.00;;;;;-147.59;100.00;57188.72;5002538;28;45471;-78
2022/04/24 07:25:15;;;;;;;;;30.00;24.33;;;;;-147.59;100.00;57188.72;5001355;28;45551;-76
2022/04/24 07:27:40;;;;;;;;;34.00;29.33;;;;;-147.59;100.00;57188.72;4991406;28;45523;-77
2022/04/24 07:30:13;;;;;;;;;33.00;30.00;;;;;-147.59;100.00;57188.72;5004719;28;45514;-77
2022/04/24 07:32:59;;;;;;;;;30.67;29.33;;;;;-147.59;100.00;57188.72;5005708;28;45957;-76
2022/04/24 07:35:30;;;;;;;;;29.67;27.00;;;;;-147.59;100.00;57188.72;4996638;28;46355;-76
2022/04/24 07:37:56;;;;;;;;;30.33;30.33;;;;;-147.59;100.00;57188.72;5011422;28;45410;-79
2022/04/24 07:40:23;;;;;;;;;30.00;28.00;;;;;-147.59;100.00;57188.72;5008150;28;45344;-75
2022/04/24 07:42:51;;;;;;;;;32.33;31.00;;;;;-147.59;100.00;57188.72;5007508;28;46467;-75
2022/04/24 07:45:17;;;;;;;;;33.67;31.00;;;;;-147.59;100.00;57188.72;5007058;28;46067;-77
2022/04/24 07:47:44;;;;;;;;;34.67;31.33;;;;;-147.59;100.00;57188.72;4998362;28;45498;-75
2022/04/24 07:50:10;;;;;;;;;34.00;32.67;;;;;-147.59;100.00;57188.72;5017113;28;45459;-78
2022/04/24 07:52:35;;;;;;;;;32.33;28.33;;;;;-147.59;100.00;57188.72;5009896;28;45488;-72
2022/04/24 07:55:00;;;;;;;;;36.33;30.33;;;;;-147.59;100.00;57188.72;5007626;28;46176;-76
2022/04/24 07:57:26;;;;;;;;;34.33;31.33;;;;;-147.59;100.00;57188.72;5006020;28;45433;-75
2022/04/24 07:59:51;;;;;;;;;28.33;28.33;;;;;-147.59;100.00;57188.72;5008072;28;45483;-77
2022/04/24 08:02:17;;;;;;;;;36.67;33.33;;;;;-147.59;100.00;57188.72;5007876;28;45916;-74
2022/04/24 08:04:42;;;;;;;;;32.00;31.00;;;;;-147.59;100.00;57188.72;5006825;28;45589;-74
2022/04/24 08:07:07;;;;;;;;;32.67;30.00;;;;;-147.59;100.00;57188.72;5006201;28;45970;-72
2022/04/24 08:09:33;;;;;;;;;37.33;32.67;;;;;-147.59;100.00;57188.72;5006184;28;45435;-71
2022/04/24 08:11:58;;;;;;;;;29.00;28.67;;;;;-147.59;100.00;57188.72;5004807;28;45702;-68
2022/04/24 08:14:23;;;;;;;;;36.00;31.00;;;;;-147.59;100.00;57188.72;5005020;28;46796;-71
2022/04/24 08:16:49;;;;;;;;;35.67;29.67;;;;;-147.59;100.00;57188.72;5006988;28;51647;-72
2022/04/24 08:19:14;;;;;;;;;37.33;33.00;;;;;-147.59;100.00;57188.72;5015719;28;45969;-72
2022/04/24 08:21:39;;;;;;;;;33.00;30.00;;;;;-147.59;100.00;57188.72;5006846;28;45624;-69
2022/04/24 08:24:05;;;;;;;;;34.67;31.00;;;;;-147.59;100.00;57188.72;5006196;28;46061;-72
2022/04/24 08:26:30;;;;;;;;;37.33;33.67;;;;;-147.59;100.00;57188.72;5005136;28;46597;-70
2022/04/24 08:28:56;;;;;;;;;36.00;33.00;;;;;-147.59;100.00;57188.72;4968834;28;45937;-69
2022/04/24 08:31:21;;;;;;;;;35.33;31.00;;;;;-147.59;100.00;57188.72;4987003;28;45535;-72
2022/04/24 08:33:46;;;;;;;;;33.33;31.00;;;;;-147.59;100.00;57188.72;4968286;28;47260;-70
2022/04/24 08:36:12;;;;;;;;;32.67;29.33;;;;;-147.59;100.00;57188.72;4989346;28;45970;-84
2022/04/24 08:38:37;;;;;;;;;38.00;31.33;;;;;-147.59;100.00;57188.72;4969889;28;45623;-80
2022/04/24 08:41:02;;;;;;;;;35.33;30.00;;;;;-147.59;100.00;57188.72;4986869;28;45583;-82
2022/04/24 08:43:27;;;;;;;;;32.67;29.33;;;;;-147.59;100.00;57188.72;4987600;28;50223;-78
2022/04/24 08:45:54;;;;;;;;;35.67;33.33;;;;;-147.59;100.00;57188.72;4987478;28;45422;-79
2022/04/24 08:48:19;;;;;;;;;33.00;28.67;;;;;-147.59;100.00;57188.72;4988257;28;45435;-79
2022/04/24 08:50:46;;;;;;;;;30.67;29.33;;;;;-147.59;100.00;57188.72;4987586;28;45833;-78
2022/04/24 08:53:12;;;;;;;;;32.33;27.67;;;;;-147.59;100.00;57188.72;4986363;28;46238;-77
2022/04/24 08:55:38;;;;;;;;;31.33;28.33;;;;;-147.59;100.00;57188.72;4987183;28;45712;-77
2022/04/24 08:58:04;;;;;;;;;30.00;27.33;;;;;-147.59;100.00;57188.72;4987403;28;45472;-76
2022/04/24 09:00:29;;;;;;;;;39.67;32.67;;;;;-147.59;100.00;57188.72;4969254;28;45451;-76
2022/04/24 09:02:57;;;;;;;;;31.67;30.00;;;;;-147.59;100.00;57188.72;4987133;28;45830;-75
2022/04/24 09:05:23;;;;;;;;;29.67;27.33;;;;;-147.59;100.00;57188.72;4985595;28;45966;-76
2022/04/24 09:07:52;;;;;;;;;32.00;31.33;;;;;-147.59;100.00;57188.72;4986099;28;45507;-76
2022/04/24 09:10:17;;;;;;;;;32.00;27.00;;;;;-147.59;100.00;57188.72;4968174;28;45442;-77
2022/04/24 09:12:43;;;;;;;;;33.33;30.33;;;;;-147.59;100.00;57188.72;4986854;28;45976;-77
2022/04/24 09:15:08;;;;;;;;;37.00;31.00;;;;;-147.59;100.00;57188.72;4986784;28;45463;-70
2022/04/24 09:17:35;;;;;;;;;33.33;31.00;;;;;-147.59;100.00;57188.72;4989514;28;45564;-77
2022/04/24 09:20:14;;;;;;;;;30.67;28.67;;;;;-147.59;100.00;57188.72;4987874;28;45623;-79
2022/04/24 09:22:40;;;;;;;;;33.67;30.33;;;;;-147.59;100.00;57188.72;4969580;28;47169;-77
2022/04/24 09:25:06;;;;;;;;;31.67;28.00;;;;;-147.59;100.00;57188.72;4987035;28;49203;-77
2022/04/24 09:27:34;;;;;;;;;37.67;33.33;;;;;-147.59;100.00;57188.72;4987037;28;45756;-77
2022/04/24 09:30:11;;;;;;;;;33.33;29.67;;;;;-147.59;100.00;57188.72;4986155;28;46542;-77
2022/04/24 09:32:47;;;;;;;;;33.00;31.00;;;;;-147.59;100.00;57188.72;4982085;28;45986;-80
2022/04/24 09:35:27;;;;;;;;;33.33;32.00;;;;;-147.59;100.00;57188.72;4984009;28;45484;-74
2022/04/24 09:38:08;;;;;;;;;31.33;30.00;;;;;-147.59;100.00;57188.72;4986968;28;45851;-76
2022/04/24 09:40:38;;;;;;;;;34.00;30.33;;;;;-147.59;100.00;57188.72;4985850;28;45857;-77
2022/04/24 09:43:04;;;;;;;;;31.67;30.00;;;;;-147.59;100.00;57188.72;4988776;28;47014;-76
2022/04/24 09:45:29;;;;;;;;;37.00;33.33;;;;;-147.59;100.00;57188.72;4985977;28;45504;-76
2022/04/24 09:47:59;;;;;;;;;33.67;31.00;;;;;-147.59;100.00;57188.72;4987390;28;45992;-78
2022/04/24 09:50:29;;;;;;;;;37.00;32.67;;;;;-147.59;100.00;57188.72;4985848;28;45908;-77
2022/04/24 09:52:57;;;;;;;;;33.67;30.00;;;;;-147.59;100.00;57188.72;4986109;28;46724;-77
2022/04/24 09:55:24;;;;;;;;;36.67;31.67;;;;;-147.59;100.00;57188.72;4985682;28;45380;-76
2022/04/24 09:57:51;;;;;;;;;33.00;28.67;;;;;-147.59;100.00;57188.72;4988719;28;45420;-76
2022/04/24 10:00:18;;;;;;;;;39.33;34.00;;;;;-147.59;100.00;57188.72;4986392;28;45389;-77
2022/04/24 10:02:44;;;;;;;;;35.67;31.67;;;;;-147.59;100.00;57188.72;4990146;28;46675;-76
2022/04/24 10:05:10;;;;;;;;;33.67;30.33;;;;;-147.59;100.00;57188.72;4968000;28;46527;-79
2022/04/24 10:07:36;;;;;;;;;30.00;30.00;;;;;-147.59;100.00;57188.72;4968307;28;45583;-77
2022/04/24 10:10:02;;;;;;;;;33.33;31.33;;;;;-147.59;100.00;57188.72;4985981;28;45475;-76
2022/04/24 10:12:30;;;;;;;;;33.67;29.33;;;;;-147.59;100.00;57188.72;4988971;28;46079;-78
2022/04/24 10:15:00;;;;;;;;;34.33;32.00;;;;;-147.59;100.00;57188.72;4985935;28;45469;-78
2022/04/24 10:18:03;;;;;;;;;39.00;33.00;;;;;-147.59;100.00;57188.72;4986086;28;46303;-78
2022/04/24 10:21:00;;;;;;;;;35.67;32.33;;;;;-147.59;100.00;57188.72;4985798;28;45805;-79
2022/04/24 10:23:30;;;;;;;;;37.00;33.00;;;;;-147.59;100.00;57188.72;4992488;28;45813;-77
2022/04/24 10:25:55;;;;;;;;;37.33;32.67;;;;;-147.59;100.00;57188.72;4969696;28;46319;-82
2022/04/24 10:28:21;;;;;;;;;35.33;32.00;;;;;-147.59;100.00;57188.72;4993920;28;45703;-77
2022/04/24 10:31:03;;;;;;;;;39.00;33.00;;;;;-147.59;100.00;57188.72;4990253;28;45582;-76
2022/04/24 10:33:33;;;;;;;;;35.00;31.33;;;;;-147.59;100.00;57188.72;4968683;28;47615;-75
2022/04/24 10:36:03;;;;;;;;;38.00;32.00;;;;;-147.59;100.00;57188.72;4986781;28;46207;-76
2022/04/24 10:38:31;;;;;;;;;36.00;32.33;;;;;-147.59;100.00;57188.72;4999118;28;46496;-76
2022/04/24 10:41:15;;;;;;;;;38.33;33.67;;;;;-147.59;100.00;57188.72;4971666;28;45360;-76
2022/04/24 10:43:48;;;;;;;;;38.00;32.33;;;;;-147.59;100.00;57188.72;4985375;28;45777;-77
2022/04/24 10:46:19;;;;;;;;;36.00;32.67;;;;;-147.59;100.00;57188.72;4971102;28;45464;-76
2022/04/24 10:48:46;;;;;;;;;34.33;31.33;;;;;-147.59;100.00;57188.72;4998272;28;45575;-77
2022/04/24 10:51:12;;;;;;;;;33.67;30.67;;;;;-147.59;100.00;57188.72;5004119;28;45488;-76
2022/04/24 10:53:49;;;;;;;;;38.33;32.00;;;;;-147.59;100.00;57188.72;4997523;28;46285;-77